Time;durP1;ratioP1;P1;durP2;ratioP2;P2;SDS_P1;SDS_P2;PMS_P1;PMS_P2;Temp;Humidity;BMP_temperature;BMP_pressure;BME280_temperature;BME280_humidity;BME280_pressure;Samples;Min_cycle;Max_cycle;Signal;HPM_P1;HPM_P2
2022/05/21 00:01:13;;;;;;;61.30;22.42;;;;;;;27.71;52.89;96988.38;4909248;29;20072;-62
2022/05/21 00:04:02;;;;;;;51.63;22.92;;;;;;;27.73;54.49;97004.06;4910462;29;20063;-62
2022/05/21 00:06:44;;;;;;;56.90;22.63;;;;;;;27.70;54.12;97012.38;4911319;29;20384;-62
2022/05/21 00:09:33;;;;;;;55.38;20.77;;;;;;;27.66;52.96;97009.31;4911103;29;20052;-63
2022/05/21 00:12:15;;;;;;;67.25;22.45;;;;;;;27.61;51.14;97008.28;4911034;29;20055;-62
2022/05/21 00:15:04;;;;;;;59.53;21.13;;;;;;;27.62;53.03;97005.41;4910085;29;20062;-63
2022/05/21 00:17:46;;;;;;;43.50;19.90;;;;;;;27.57;51.80;97013.13;4911187;29;20048;-62
2022/05/21 00:20:47;;;;;;;55.80;19.52;;;;;;;27.59;52.85;97020.88;4882995;29;20517;-62
2022/05/21 00:23:25;;;;;;;52.83;19.80;;;;;;;27.59;52.23;97029.63;4872882;29;20130;-62
2022/05/21 00:26:15;;;;;;;56.50;20.83;;;;;;;27.59;52.48;97039.41;4891311;29;20060;-62
2022/05/21 00:28:58;;;;;;;57.80;18.58;;;;;;;27.55;53.41;97049.53;4903055;29;20070;-62
2022/05/21 00:31:49;;;;;;;49.28;20.10;;;;;;;27.57;54.01;97065.22;4904329;29;20048;-61
2022/05/21 00:34:38;;;;;;;48.95;20.13;;;;;;;27.57;54.93;97068.69;4891372;29;20048;-61
2022/05/21 00:37:27;;;;;;;53.42;17.70;;;;;;;27.57;49.80;97071.34;4891605;29;20525;-62
2022/05/21 00:40:18;;;;;;;46.42;19.10;;;;;;;27.60;53.33;97070.97;4890465;29;20984;-62
2022/05/21 00:43:27;;;;;;;33.67;17.08;;;;;;;27.62;56.17;97082.16;4892099;29;20518;-62
2022/05/21 00:46:14;;;;;;;40.90;17.47;;;;;;;27.60;53.01;97094.78;4877210;29;20071;-62
2022/05/21 00:49:24;;;;;;;48.92;17.92;;;;;;;27.69;49.46;97103.41;4895971;29;20127;-62
2022/05/21 00:52:13;;;;;;;45.97;19.07;;;;;;;27.79;47.13;97109.97;4901294;29;20063;-62
2022/05/21 00:55:12;;;;;;;46.72;18.52;;;;;;;27.80;49.88;97105.50;4901487;29;20060;-62
2022/05/21 01:01:13;;;;;;;59.90;20.67;;;;;;;27.91;51.78;97106.81;4896458;29;20402;-61
2022/05/21 01:04:02;;;;;;;58.10;21.05;;;;;;;28.01;52.70;97096.69;4900310;29;20417;-62
2022/05/21 01:06:44;;;;;;;59.85;21.67;;;;;;;28.01;53.03;97100.16;4889881;29;20054;-62
2022/05/21 01:09:33;;;;;;;61.20;24.23;;;;;;;27.99;49.98;97104.81;4891294;29;20064;-62
2022/05/21 01:12:26;;;;;;;60.95;23.67;;;;;;;28.05;54.44;97096.09;4897115;29;20044;-61
2022/05/21 01:15:23;;;;;;;64.82;26.05;;;;;;;28.10;56.59;97098.16;4909802;29;20048;-62
2022/05/21 01:18:07;;;;;;;52.45;25.83;;;;;;;28.10;54.72;97092.84;4910159;29;20047;-62
2022/05/21 01:25:10;;;;;;;75.80;27.23;;;;;;;28.21;52.05;97100.28;4889939;29;20064;-62
2022/05/21 01:27:59;;;;;;;75.93;27.38;;;;;;;28.31;59.01;97095.47;4891383;29;20052;-61
2022/05/21 01:30:46;;;;;;;59.22;26.00;;;;;;;28.33;55.53;97114.63;4890981;29;20664;-62
2022/05/21 01:33:39;;;;;;;68.85;25.83;;;;;;;28.40;59.74;97119.97;4890616;29;20064;-62
2022/05/21 01:36:30;;;;;;;76.88;27.58;;;;;;;28.46;58.98;97125.28;4889517;29;20053;-62
2022/05/21 01:39:19;;;;;;;82.25;26.98;;;;;;;28.50;56.77;97126.50;4890420;29;20052;-61
2022/05/21 01:42:01;;;;;;;68.05;28.17;;;;;;;28.58;56.71;97120.22;4891076;29;20052;-62
2022/05/21 01:44:52;;;;;;;63.03;27.70;;;;;;;28.68;50.76;97120.69;4890829;29;20056;-62
2022/05/21 01:47:41;;;;;;;64.35;27.17;;;;;;;28.86;50.95;97118.34;4891474;29;20064;-62
2022/05/21 01:50:33;;;;;;;67.82;25.83;;;;;;;29.19;51.69;97115.78;4891653;29;20052;-63
2022/05/21 01:53:16;;;;;;;61.50;24.75;;;;;;;29.46;49.53;97113.97;4892162;29;20044;-63
2022/05/21 01:56:13;;;;;;;55.15;22.90;;;;;;;29.83;51.08;97115.22;4891569;29;20535;-63
2022/05/21 01:58:49;;;;;;;64.30;23.17;;;;;;;30.02;47.78;97117.03;4906004;29;20099;-63
2022/05/21 02:01:38;;;;;;;58.95;21.60;;;;;;;30.30;52.55;97113.31;4909233;29;20058;-63
2022/05/21 02:04:20;;;;;;;58.28;21.77;;;;;;;30.46;50.78;97112.84;4908710;29;20044;-63
2022/05/21 02:07:09;;;;;;;51.85;20.92;;;;;;;30.67;48.41;97114.41;4908151;29;20532;-63
2022/05/21 02:09:51;;;;;;;55.85;20.50;;;;;;;30.91;48.49;97104.91;4909519;29;20063;-63
2022/05/21 02:12:40;;;;;;;52.60;19.77;;;;;;;31.19;50.64;97100.06;4888510;29;20053;-64
2022/05/21 02:15:29;;;;;;;53.25;19.30;;;;;;;31.45;47.65;97105.19;4889838;29;20811;-63
2022/05/21 02:18:12;;;;;;;55.38;16.88;;;;;;;31.50;45.53;97115.19;4890151;29;20052;-63
2022/05/21 02:21:01;;;;;;;46.22;15.10;;;;;;;31.68;42.95;97114.47;4887425;29;20045;-63
2022/05/21 02:23:43;;;;;;;49.15;16.58;;;;;;;31.89;49.14;97114.88;4889566;29;20070;-63
2022/05/21 02:26:33;;;;;;;38.40;15.50;;;;;;;32.12;48.45;97114.25;4889856;29;20400;-63
2022/05/21 02:29:15;;;;;;;43.72;15.82;;;;;;;32.46;53.56;97110.22;4895167;29;20133;-64
2022/05/21 02:32:04;;;;;;;37.83;14.55;;;;;;;32.47;52.80;97117.19;4903133;29;20044;-64
2022/05/21 02:34:47;;;;;;;76.22;16.88;;;;;;;32.55;68.98;97119.56;4903327;29;20064;-64
2022/05/21 02:40:36;;;;;;;41.50;13.43;;;;;;;32.44;52.61;97130.16;4902987;29;20108;-64
2022/05/21 02:43:29;;;;;;;34.08;12.95;;;;;;;32.62;68.37;97122.97;4903113;29;20156;-63
2022/05/21 02:46:13;;;;;;;31.20;14.20;;;;;;;32.80;61.75;97116.81;4901651;28;20150;-64
2022/05/21 02:49:02;;;;;;;42.15;13.88;;;;;;;32.96;61.93;97108.19;4902547;29;20055;-62
2022/05/21 02:51:44;;;;;;;39.67;12.60;;;;;;;33.04;54.35;97110.53;4901814;29;20142;-62
2022/05/21 02:54:33;;;;;;;35.95;12.07;;;;;;;33.17;47.94;97116.72;4903915;29;20048;-63
2022/05/21 02:57:15;;;;;;;40.20;13.35;;;;;;;33.44;48.69;97118.00;4903138;29;20055;-62
2022/05/21 03:00:11;;;;;;;39.22;12.25;;;;;;;33.90;47.63;97119.13;4902791;29;20052;-62
2022/05/21 03:03:00;;;;;;;36.13;12.52;;;;;;;33.37;44.02;97123.41;4904028;29;20084;-62
2022/05/21 03:05:43;;;;;;;40.60;12.35;;;;;;;33.98;50.54;97124.94;4907857;29;20423;-62
2022/05/21 03:11:32;;;;;;;37.05;13.07;;;;;;;34.05;47.14;97119.47;4907858;29;20054;-62
2022/05/21 03:14:27;;;;;;;36.70;12.48;;;;;;;33.66;42.82;97115.59;4907378;29;20147;-63
2022/05/21 03:17:03;;;;;;;38.17;11.82;;;;;;;33.73;43.62;97117.13;4907880;29;20088;-63
2022/05/21 03:19:58;;;;;;;31.83;12.90;;;;;;;33.84;40.65;97117.38;4906581;29;20056;-62
2022/05/21 03:22:34;;;;;;;42.05;13.18;;;;;;;34.10;40.17;97124.91;4907813;29;20476;-63
2022/05/21 03:25:24;;;;;;;34.53;13.02;;;;;;;34.61;44.78;97112.66;4900552;29;20073;-63
2022/05/21 03:28:07;;;;;;;46.45;14.38;;;;;;;34.89;40.53;97118.06;4889341;29;20148;-63
2022/05/21 03:30:58;;;;;;;40.45;13.40;;;;;;;35.15;42.87;97114.00;4876920;29;20140;-63
2022/05/21 03:33:40;;;;;;;35.05;12.13;;;;;;;34.54;38.87;97116.28;4870180;29;20065;-64
2022/05/21 03:36:35;;;;;;;37.22;11.80;;;;;;;34.73;39.37;97113.44;4872548;29;20064;-63
2022/05/21 03:39:10;;;;;;;34.92;12.85;;;;;;;34.90;39.38;97117.00;4888893;29;20448;-62
2022/05/21 03:42:00;;;;;;;32.35;11.70;;;;;;;35.26;39.03;97116.66;4889657;29;20073;-62
2022/05/21 03:44:43;;;;;;;31.65;10.65;;;;;;;35.30;41.52;97120.44;4889057;29;20059;-62
2022/05/21 03:47:41;;;;;;;31.67;10.32;;;;;;;34.94;36.60;97123.53;4888392;29;20150;-63
2022/05/21 03:50:32;;;;;;;34.53;11.55;;;;;;;35.05;40.82;97119.97;4888505;29;20072;-63
2022/05/21 03:53:21;;;;;;;39.70;11.90;;;;;;;35.44;38.54;97126.31;4888344;29;20144;-64
2022/05/21 03:56:11;;;;;;;40.08;11.68;;;;;;;35.26;35.50;97124.69;4888202;29;20071;-63
2022/05/21 03:58:53;;;;;;;31.90;10.60;;;;;;;35.42;39.43;97124.94;4889439;29;20135;-64
2022/05/21 04:01:42;;;;;;;38.50;12.32;;;;;;;35.86;39.48;97125.94;4888894;29;20045;-63
2022/05/21 04:04:24;;;;;;;44.42;11.65;;;;;;;36.11;35.45;97136.25;4888727;29;20099;-64
2022/05/21 04:07:13;;;;;;;27.30;10.80;;;;;;;36.31;39.00;97128.53;4888643;29;20048;-65
2022/05/21 04:09:55;;;;;;;46.58;10.90;;;;;;;36.67;36.23;97138.66;4889296;29;20056;-64
2022/05/21 04:12:44;;;;;;;30.05;10.13;;;;;;;36.52;36.52;97146.50;4889012;29;20067;-64
2022/05/21 04:15:26;;;;;;;43.53;11.77;;;;;;;37.00;37.46;97136.91;4888772;29;20045;-64
2022/05/21 04:18:24;;;;;;;33.97;11.27;;;;;;;37.07;38.89;97140.19;4888277;29;20451;-64
2022/05/21 04:21:00;;;;;;;43.50;12.00;;;;;;;37.03;35.50;97142.59;4888994;29;20049;-64
2022/05/21 04:23:55;;;;;;;43.28;11.38;;;;;;;36.95;33.74;97134.97;4885391;29;20129;-63
2022/05/21 04:26:31;;;;;;;27.90;10.40;;;;;;;37.10;34.82;97134.34;4888708;29;20045;-64
2022/05/21 04:29:20;;;;;;;45.33;10.63;;;;;;;37.01;33.01;97139.34;4888769;29;20524;-64
2022/05/21 04:32:02;;;;;;;26.35;10.88;;;;;;;37.64;37.39;97137.84;4889396;29;20151;-64
2022/05/21 04:34:51;;;;;;;37.78;10.77;;;;;;;37.24;31.36;97138.25;4894416;29;20051;-63
2022/05/21 04:37:33;;;;;;;48.30;11.52;;;;;;;37.50;32.84;97137.44;4908561;29;20048;-63
2022/05/21 04:40:23;;;;;;;39.45;10.75;;;;;;;37.89;30.75;97132.66;4908751;29;20056;-64
2022/05/21 04:43:12;;;;;;;34.95;9.60;;;;;;;38.32;34.51;97119.22;4877524;29;20093;-65
2022/05/21 04:46:01;;;;;;;34.58;9.98;;;;;;;37.74;32.36;97121.81;4870721;29;20075;-65
2022/05/21 04:48:51;;;;;;;;;;;;;;;37.81;33.89;97121.56;4874859;29;20105;-64
2022/05/21 04:51:45;;;;;;;33.10;10.40;;;;;;;37.22;31.94;97116.19;4873739;29;19927;-64
2022/05/21 04:54:27;;;;;;;43.83;10.77;;;;;;;37.52;30.76;97124.53;4873276;29;20072;-64
2022/05/21 04:57:16;;;;;;;44.50;13.13;;;;;;;38.01;33.91;97118.19;4858841;29;20056;-64
2022/05/21 04:59:58;;;;;;;45.72;10.70;;;;;;;37.43;30.02;97126.09;4873654;29;20806;-64
2022/05/21 05:02:47;;;;;;;40.88;10.07;;;;;;;37.72;30.71;97117.75;4872929;29;20148;-63
2022/05/21 05:05:29;;;;;;;39.83;10.80;;;;;;;37.40;29.91;97117.72;4872998;29;20049;-64
2022/05/21 05:08:21;;;;;;;43.05;10.05;;;;;;;37.94;32.94;97113.06;4897109;29;20520;-64
2022/05/21 05:11:03;;;;;;;36.88;10.63;;;;;;;38.02;30.25;97117.94;4910936;29;20515;-63
2022/05/21 05:13:52;;;;;;;58.60;10.60;;;;;;;38.50;35.02;97113.41;4910656;29;20052;-64
2022/05/21 05:16:41;;;;;;;32.75;10.60;;;;;;;38.46;33.09;97112.31;4910436;29;20151;-64
2022/05/21 05:19:38;;;;;;;32.88;10.45;;;;;;;38.70;34.69;97105.44;4910530;29;20055;-63
2022/05/21 05:22:14;;;;;;;39.72;9.82;;;;;;;38.58;33.51;97104.84;4903922;29;20152;-64
2022/05/21 05:25:04;;;;;;;;;;;;;;;38.35;31.50;97105.25;4891983;29;20215;-63
2022/05/21 05:27:55;;;;;;;25.98;8.82;;;;;;;38.46;29.82;97101.53;4891363;29;20011;-62
2022/05/21 05:30:44;;;;;;;25.10;10.93;;;;;;;38.78;30.00;97099.53;4890056;29;20052;-63
2022/05/21 05:33:33;;;;;;;37.72;9.73;;;;;;;38.48;28.59;97097.50;4890754;29;20048;-63
2022/05/21 05:36:22;;;;;;;34.63;9.75;;;;;;;39.01;33.32;97093.69;4891032;29;20736;-63
2022/05/21 05:39:11;;;;;;;42.45;10.85;;;;;;;38.65;34.06;97095.44;4893375;29;20053;-65
2022/05/21 05:41:54;;;;;;;32.03;10.35;;;;;;;38.88;31.98;97102.25;4900837;29;20048;-63
2022/05/21 05:44:43;;;;;;;34.00;9.57;;;;;;;38.86;33.63;97095.53;4900232;29;20044;-64
2022/05/21 05:47:33;;;;;;;42.63;9.98;;;;;;;38.99;33.02;97097.72;4899641;29;20076;-64
2022/05/21 05:50:22;;;;;;;42.67;10.43;;;;;;;38.88;32.70;97096.84;4898882;29;20414;-64
2022/05/21 05:53:06;;;;;;;49.35;9.88;;;;;;;38.75;32.11;97086.59;4897753;29;20048;-64
2022/05/21 05:55:56;;;;;;;38.75;10.70;;;;;;;38.81;33.09;97088.22;4900138;29;20058;-64
2022/05/21 06:01:47;;;;;;;45.47;11.88;;;;;;;38.73;32.11;97072.56;4885820;29;20184;-64
2022/05/21 06:04:43;;;;;;;40.65;12.35;;;;;;;38.72;38.69;97070.13;4899129;29;20051;-65
2022/05/21 06:07:19;;;;;;;40.65;10.77;;;;;;;38.66;33.54;97066.63;4897455;29;20052;-63
2022/05/21 06:10:08;;;;;;;;;;;;;;;38.67;37.76;97060.16;4897766;29;20501;-65
2022/05/21 06:12:50;;;;;;;32.35;9.95;;;;;;;38.62;40.90;97060.97;4900164;29;20330;-65
2022/05/21 06:15:40;;;;;;;36.53;11.00;;;;;;;38.75;33.49;97064.22;4891498;29;20770;-65
2022/05/21 06:18:29;;;;;;;52.67;11.32;;;;;;;38.86;37.34;97061.31;4898527;29;20052;-65
2022/05/21 06:21:12;;;;;;;39.35;11.00;;;;;;;38.76;32.80;97055.09;4895445;29;20044;-65
2022/05/21 06:24:01;;;;;;;33.90;10.35;;;;;;;38.88;37.49;97051.06;4898795;29;20048;-64
2022/05/21 06:26:50;;;;;;;30.83;10.82;;;;;;;38.67;30.18;97049.41;4889321;29;20135;-63
2022/05/21 06:29:32;;;;;;;36.53;10.43;;;;;;;38.91;33.30;97050.53;4890053;29;20531;-64
2022/05/21 06:32:27;;;;;;;34.97;8.75;;;;;;;38.87;32.28;97048.66;4889569;29;20045;-66
2022/05/21 06:35:04;;;;;;;39.15;10.98;;;;;;;38.95;36.23;97045.47;4883962;29;20220;-66
2022/05/21 06:37:59;;;;;;;29.30;8.90;;;;;;;38.45;33.26;97032.63;4875329;29;20480;-64
2022/05/21 06:40:35;;;;;;;35.00;8.90;;;;;;;38.53;34.07;97029.44;4890553;29;20063;-64
2022/05/21 06:43:24;;;;;;;;;;;;;;;38.47;29.81;97038.56;4890636;29;20540;-65
2022/05/21 06:46:06;;;;;;;26.70;9.10;;;;;;;38.34;31.71;97028.25;4889312;29;19951;-65
2022/05/21 06:49:01;;;;;;;40.65;9.52;;;;;;;38.32;32.08;97023.13;4889081;29;20044;-64
2022/05/21 06:51:54;;;;;;;30.05;8.45;;;;;;;38.45;31.65;97024.53;4889863;29;20079;-65
2022/05/21 06:54:43;;;;;;;51.38;9.68;;;;;;;38.30;26.75;97019.91;4871677;29;20815;-66
2022/05/21 06:57:28;;;;;;;32.35;8.88;;;;;;;38.20;29.37;97014.50;4904718;29;20139;-64
2022/05/21 07:00:17;;;;;;;33.80;8.05;;;;;;;38.23;27.23;97012.09;4908586;29;20123;-65
2022/05/21 07:03:06;;;;;;;26.23;7.78;;;;;;;38.29;29.89;97016.41;4909535;29;20067;-64
2022/05/21 07:08:55;;;;;;;34.05;10.05;;;;;;;38.39;32.84;97004.88;4909078;29;20111;-64
2022/05/21 07:11:37;;;;;;;42.70;8.60;;;;;;;38.12;29.91;97002.34;4900363;29;20087;-65
2022/05/21 07:14:27;;;;;;;32.17;7.43;;;;;;;38.25;28.53;96999.16;4907715;29;20123;-64
2022/05/21 07:17:09;;;;;;;;;;;;;;;38.21;27.68;96999.97;4908775;29;20055;-64
2022/05/21 07:20:01;;;;;;;21.80;7.05;;;;;;;38.32;29.44;97003.47;4901903;29;19931;-65
2022/05/21 07:22:47;;;;;;;28.08;7.18;;;;;;;38.34;31.65;97004.03;4871793;29;20057;-64
2022/05/21 07:25:42;;;;;;;30.85;6.13;;;;;;;38.33;28.43;96995.16;4881706;29;20085;-63
2022/05/21 07:28:18;;;;;;;27.80;6.93;;;;;;;38.44;32.30;96990.63;4890370;29;20053;-64
2022/05/21 07:31:13;;;;;;;;;;;;;;;38.38;33.08;96994.38;4891569;29;20060;-65
2022/05/21 07:33:50;;;;;;;29.23;5.93;;;;;;;38.34;31.48;96983.31;4889824;29;20006;-64
2022/05/21 07:36:39;;;;;;;20.38;6.53;;;;;;;38.44;28.93;96986.03;4891749;29;20911;-65
2022/05/21 07:39:21;;;;;;;18.05;5.80;;;;;;;38.60;32.08;96978.84;4898137;29;20420;-65
2022/05/21 07:42:11;;;;;;;21.45;6.13;;;;;;;38.69;27.58;96981.81;4897593;29;20056;-66
2022/05/21 07:45:00;;;;;;;20.55;4.53;;;;;;;38.69;28.26;96985.31;4899777;29;20048;-65
2022/05/21 07:47:52;;;;;;;24.10;4.68;;;;;;;38.71;32.16;96975.09;4899988;29;20128;-65
2022/05/21 07:50:50;;;;;;;23.73;4.68;;;;;;;38.55;25.89;96976.16;4908891;29;20052;-65
2022/05/21 07:53:32;;;;;;;18.13;4.10;;;;;;;38.59;27.37;96967.25;4908263;29;20068;-65
2022/05/21 07:56:21;;;;;;;18.50;3.72;;;;;;;38.65;29.29;96970.75;4906685;29;20346;-65
2022/05/21 07:59:03;;;;;;;20.55;5.88;;;;;;;38.59;28.83;96971.84;4908491;29;20484;-65
2022/05/21 08:01:59;;;;;;;18.67;6.32;;;;;;;38.55;28.93;96970.75;4908197;29;20040;-65
2022/05/21 08:04:37;;;;;;;26.50;6.28;;;;;;;38.33;29.21;96957.47;4908112;29;20205;-65
2022/05/21 08:07:32;;;;;;;16.92;6.13;;;;;;;38.24;24.76;96959.88;4903743;29;20064;-66
2022/05/21 08:10:09;;;;;;;23.42;8.68;;;;;;;38.29;27.69;96946.44;4900573;29;20044;-65
2022/05/21 08:13:06;;;;;;;26.67;7.68;;;;;;;38.31;29.20;96953.44;4908408;29;20044;-66
2022/05/21 08:15:43;;;;;;;28.30;8.88;;;;;;;38.26;31.77;96946.16;4907459;29;20040;-65
2022/05/21 08:18:38;;;;;;;;;;;;;;;38.23;30.83;96935.94;4888618;29;20044;-66
2022/05/21 08:21:14;;;;;;;35.30;9.07;;;;;;;38.16;30.03;96933.47;4889449;29;19923;-66
2022/05/21 08:27:03;;;;;;;26.10;8.45;;;;;;;38.00;29.14;96931.78;4874080;29;19995;-65
2022/05/21 08:29:52;;;;;;;40.28;8.38;;;;;;;37.98;24.80;96927.75;4876518;29;20041;-65
2022/05/21 08:32:34;;;;;;;30.98;8.52;;;;;;;38.06;27.20;96920.00;4911201;29;20048;-64
2022/05/21 08:35:23;;;;;;;31.42;8.70;;;;;;;38.02;28.57;96918.88;4910914;29;20747;-66
2022/05/21 08:38:05;;;;;;;36.35;11.55;;;;;;;37.98;26.13;96914.31;4900056;29;20048;-64
2022/05/21 08:41:10;;;;;;;37.88;10.02;;;;;;;38.03;26.34;96909.72;4891007;29;20055;-63
2022/05/21 08:44:25;;;;;;;36.47;9.40;;;;;;;38.04;28.24;96897.91;4869925;29;20055;-63
2022/05/21 08:47:29;;;;;;;24.50;9.82;;;;;;;37.97;29.88;96904.59;4875693;29;20082;-64
2022/05/21 08:50:21;;;;;;;30.75;9.73;;;;;;;37.81;29.23;96899.19;4874219;29;20131;-66
2022/05/21 08:53:18;;;;;;;33.47;11.85;;;;;;;37.80;28.41;96894.06;4905455;29;20547;-66
2022/05/21 08:56:09;;;;;;;30.75;9.55;;;;;;;37.66;29.73;96882.19;4910024;29;20127;-65
2022/05/21 08:58:51;;;;;;;40.90;9.88;;;;;;;37.68;31.25;96880.81;4909985;29;20067;-67
2022/05/21 09:01:44;;;;;;;37.20;9.98;;;;;;;37.63;32.34;96883.50;4910004;29;20048;-66
2022/05/21 09:04:39;;;;;;;32.67;10.45;;;;;;;37.57;29.03;96878.34;4909470;29;20394;-67
2022/05/21 09:07:27;;;;;;;67.75;11.23;;;;;;;37.48;30.77;96873.47;4909731;29;20171;-66
2022/05/21 09:10:27;;;;;;;35.40;9.70;;;;;;;37.38;33.18;96868.03;4910812;29;20051;-66
2022/05/21 09:13:29;;;;;;;30.55;8.45;;;;;;;37.21;26.63;96861.22;4901457;29;20048;-66
2022/05/21 09:19:34;;;;;;;33.00;9.38;;;;;;;37.17;30.77;96851.00;4877787;29;20075;-65
2022/05/21 09:22:26;;;;;;;26.08;8.85;;;;;;;36.96;33.54;96849.22;4891281;29;20064;-66
2022/05/21 09:25:28;;;;;;;29.58;9.13;;;;;;;37.04;32.57;96847.91;4891043;29;20063;-65
2022/05/21 09:28:25;;;;;;;34.75;10.18;;;;;;;36.92;34.21;96840.06;4893840;29;20076;-65
2022/05/21 09:31:27;;;;;;;34.30;9.43;;;;;;;36.94;29.88;96846.00;4872823;29;20968;-66
2022/05/21 09:34:35;;;;;;;28.83;10.02;;;;;;;36.83;30.52;96836.25;4870780;29;20056;-65
2022/05/21 09:37:29;;;;;;;31.58;10.80;;;;;;;36.67;33.54;96829.16;4872352;29;20064;-64
2022/05/21 09:40:30;;;;;;;36.40;10.68;;;;;;;36.58;33.61;96828.78;4871941;29;20045;-64
2022/05/21 09:46:28;;;;;;;26.38;10.68;;;;;;;36.25;32.35;96829.03;4872006;29;20049;-65
2022/05/21 09:49:35;;;;;;;26.75;9.50;;;;;;;36.10;34.86;96820.81;4870773;29;20125;-65
2022/05/21 09:52:25;;;;;;;32.92;10.30;;;;;;;36.17;32.90;96813.38;4872358;29;20052;-65
2022/05/21 09:55:37;;;;;;;32.30;10.98;;;;;;;36.16;33.77;96811.78;4872286;29;20053;-65
2022/05/21 09:58:14;;;;;;;32.55;9.80;;;;;;;36.12;33.97;96808.78;4872150;29;20052;-64
2022/05/21 10:01:05;;;;;;;34.80;10.57;;;;;;;35.99;31.61;96804.66;4906334;29;20075;-64
2022/05/21 10:03:59;;;;;;;31.08;9.98;;;;;;;35.93;35.38;96805.66;4909529;29;20080;-65
2022/05/21 10:06:55;;;;;;;28.25;9.65;;;;;;;36.02;34.71;96798.75;4909560;29;20334;-65
2022/05/21 10:13:51;;;;;;;31.15;9.68;;;;;;;36.00;31.37;96784.78;4909297;29;20060;-65
2022/05/21 10:17:01;;;;;;;22.27;8.60;;;;;;;35.95;32.31;96787.44;4909598;29;20128;-65
2022/05/21 10:19:52;;;;;;;28.10;8.38;;;;;;;36.18;32.68;96788.16;4909816;29;20048;-64
2022/05/21 10:22:53;;;;;;;27.05;7.47;;;;;;;36.34;31.53;96790.75;4909590;29;20060;-64
2022/05/21 10:26:04;;;;;;;24.63;6.32;;;;;;;36.60;30.29;96793.63;4901006;29;20638;-65
2022/05/21 10:29:02;;;;;;;17.30;6.97;;;;;;;36.46;33.12;96789.78;4901403;29;20064;-65
2022/05/21 10:32:17;;;;;;;33.22;7.15;;;;;;;36.47;29.89;96794.91;4909378;29;20040;-65
2022/05/21 10:35:39;;;;;;;34.83;8.55;;;;;;;36.63;28.96;96788.56;4894165;29;20053;-65
2022/05/21 10:38:48;;;;;;;23.67;9.68;;;;;;;36.98;28.92;96782.63;4889290;29;20214;-65
2022/05/21 10:42:05;;;;;;;26.13;9.20;;;;;;;37.05;30.32;96780.50;4877290;29;20049;-65
2022/05/21 10:44:53;;;;;;;30.38;9.35;;;;;;;37.07;30.02;96777.56;4870671;29;20600;-65
2022/05/21 10:47:48;;;;;;;31.42;9.75;;;;;;;37.18;28.52;96787.34;4869864;29;20064;-65
2022/05/21 10:50:45;;;;;;;33.88;9.02;;;;;;;37.30;29.37;96779.84;4871138;29;20053;-65
2022/05/21 10:54:01;;;;;;;26.67;9.32;;;;;;;37.36;29.34;96786.03;4873227;29;20815;-65
2022/05/21 10:57:28;;;;;;;36.85;9.80;;;;;;;37.34;29.35;96782.84;4871472;29;20037;-65
2022/05/21 11:00:25;;;;;;;26.73;9.05;;;;;;;37.33;28.73;96782.03;4870913;29;20067;-66
2022/05/21 11:03:40;;;;;;;25.20;8.35;;;;;;;37.22;29.50;96780.34;4879456;29;20677;-65
2022/05/21 11:06:32;;;;;;;24.00;8.98;;;;;;;37.21;29.33;96783.31;4889513;29;20084;-64
2022/05/21 11:09:56;;;;;;;31.80;10.07;;;;;;;37.01;32.17;96779.44;4896827;29;20465;-64
2022/05/21 11:12:51;;;;;;;18.60;6.97;;;;;;;36.83;30.66;96779.06;4897574;29;20476;-64
2022/05/21 11:15:56;;;;;;;25.05;8.00;;;;;;;36.68;30.96;96775.22;4892042;29;20044;-65
2022/05/21 11:19:16;;;;;;;24.23;8.05;;;;;;;36.63;30.94;96769.78;4897445;29;20052;-65
2022/05/21 11:22:25;;;;;;;28.77;8.80;;;;;;;36.74;27.70;96768.78;4879072;29;20080;-64
2022/05/21 11:25:22;;;;;;;30.95;7.25;;;;;;;36.70;28.82;96773.09;4888243;29;20071;-64
2022/05/21 11:28:57;;;;;;;31.92;7.70;;;;;;;36.52;29.80;96770.78;4888675;29;20620;-65
2022/05/21 11:38:06;;;;;;;23.97;7.93;;;;;;;36.61;29.29;96769.22;4879548;29;20080;-64
2022/05/21 11:47:22;;;;;;;28.83;8.20;;;;;;;36.63;27.66;96767.09;4872430;29;20049;-65
2022/05/21 11:50:29;;;;;;;32.20;7.75;;;;;;;36.58;28.31;96761.69;4868896;29;20048;-65
2022/05/21 11:53:09;;;;;;;31.17;6.90;;;;;;;36.52;27.38;96761.91;4889407;29;20041;-64
2022/05/21 11:56:03;;;;;;;38.40;7.03;;;;;;;36.53;28.54;96764.34;4890321;29;20107;-63
2022/05/21 11:59:06;;;;;;;23.70;5.95;;;;;;;36.53;28.49;96761.66;4892818;29;20057;-64
2022/05/21 12:01:59;;;;;;;33.63;6.30;;;;;;;36.50;28.12;96770.22;4892976;29;20052;-64
2022/05/21 12:04:49;;;;;;;26.02;7.03;;;;;;;36.52;27.79;96761.91;4892214;29;20467;-63
2022/05/21 12:07:50;;;;;;;27.30;7.22;;;;;;;36.41;28.34;96752.97;4892840;29;20044;-63
2022/05/21 12:10:50;;;;;;;20.33;6.32;;;;;;;36.32;28.53;96766.06;4904297;29;20052;-64
2022/05/21 12:14:01;;;;;;;24.92;6.40;;;;;;;36.24;29.82;96746.97;4892217;29;20100;-65
2022/05/21 12:16:43;;;;;;;30.42;5.93;;;;;;;36.14;28.58;96750.34;4891598;29;20127;-63
2022/05/21 12:19:44;;;;;;;23.42;6.18;;;;;;;36.01;29.18;96748.06;4891211;29;20060;-64
2022/05/21 12:22:51;;;;;;;21.00;6.00;;;;;;;36.09;28.50;96760.19;4896182;29;20107;-65
2022/05/21 12:25:46;;;;;;;20.60;6.05;;;;;;;36.01;28.24;96754.22;4901227;29;20067;-65
2022/05/21 12:28:53;;;;;;;21.75;5.15;;;;;;;35.95;27.45;96757.94;4890985;29;20052;-64
2022/05/21 12:31:54;;;;;;;24.73;5.47;;;;;;;35.86;28.30;96755.97;4891270;29;20127;-64
2022/05/21 12:35:07;;;;;;;18.40;5.78;;;;;;;35.84;28.88;96753.53;4891786;29;20076;-62
2022/05/21 12:37:55;;;;;;;22.70;5.63;;;;;;;35.76;28.54;96755.91;4875345;29;20048;-62
2022/05/21 12:41:16;;;;;;;29.05;5.50;;;;;;;35.80;28.36;96757.81;4875388;29;20067;-64
2022/05/21 12:44:06;;;;;;;31.15;5.88;;;;;;;35.77;28.26;96755.63;4900128;29;20108;-63
2022/05/21 12:46:58;;;;;;;20.13;5.70;;;;;;;35.68;27.59;96760.59;4907313;29;20162;-62
2022/05/21 12:49:56;;;;;;;21.30;5.47;;;;;;;35.63;28.24;96757.88;4909179;29;20048;-65
2022/05/21 12:52:55;;;;;;;26.35;5.55;;;;;;;35.56;30.16;96751.09;4899881;29;20052;-67
2022/05/21 12:55:44;;;;;;;27.23;8.07;;;;;;;35.53;28.89;96755.06;4906683;29;20080;-65
2022/05/21 12:58:26;;;;;;;18.05;5.47;;;;;;;35.38;29.19;96762.94;4899860;29;20052;-65
2022/05/21 13:01:30;;;;;;;24.23;6.13;;;;;;;35.32;28.83;96765.81;4872407;29;20069;-65
2022/05/21 13:04:33;;;;;;;22.25;5.35;;;;;;;35.17;28.35;96759.19;4886257;29;20053;-66
2022/05/21 13:07:26;;;;;;;34.35;7.35;;;;;;;35.19;28.87;96757.09;4879219;29;20042;-66
2022/05/21 13:10:23;;;;;;;28.17;6.25;;;;;;;35.18;30.20;96760.00;4891740;29;20053;-67
2022/05/21 13:13:24;;;;;;;33.60;5.85;;;;;;;35.19;28.58;96767.78;4875239;29;20134;-66
2022/05/21 13:16:13;;;;;;;20.95;6.07;;;;;;;35.05;29.97;96761.16;4872971;29;20056;-65
2022/05/21 13:19:12;;;;;;;32.17;6.53;;;;;;;35.00;30.13;96762.97;4875531;29;20077;-66
2022/05/21 13:21:54;;;;;;;29.48;6.68;;;;;;;35.02;30.35;96766.22;4888194;29;20085;-66
2022/05/21 13:24:55;;;;;;;25.55;5.85;;;;;;;34.90;29.95;96769.81;4883284;29;20089;-66
2022/05/21 13:27:52;;;;;;;27.70;6.07;;;;;;;34.90;29.42;96774.34;4875574;29;20048;-66
2022/05/21 13:30:47;;;;;;;17.90;5.50;;;;;;;34.93;30.45;96779.22;4874491;29;20126;-66
2022/05/21 13:33:44;;;;;;;31.92;7.07;;;;;;;34.94;29.26;96780.84;4872393;29;20493;-65
2022/05/21 13:36:33;;;;;;;25.60;6.40;;;;;;;34.81;29.87;96779.31;4883064;29;20365;-66
2022/05/21 13:39:31;;;;;;;22.10;6.03;;;;;;;34.74;30.12;96788.59;4890430;29;20060;-65
2022/05/21 13:42:26;;;;;;;23.60;6.03;;;;;;;34.69;30.21;96791.97;4891258;29;20723;-65
2022/05/21 13:45:15;;;;;;;25.02;6.43;;;;;;;34.66;31.75;96794.31;4890984;29;20049;-66
2022/05/21 13:48:24;;;;;;;184.40;16.60;;;;;;;34.74;28.53;96832.22;4888840;29;20076;-65
2022/05/21 13:51:23;;;;;;;371.85;32.38;;;;;;;34.62;29.22;96868.94;4869539;29;20049;-66
2022/05/21 13:54:13;;;;;;;437.92;37.13;;;;;;;34.32;29.14;96863.88;4876017;29;20056;-67
2022/05/21 13:57:34;;;;;;;387.85;35.33;;;;;;;33.98;30.99;96860.28;4881336;29;20164;-65
2022/05/21 14:00:20;;;;;;;377.90;33.10;;;;;;;33.55;32.57;96863.41;4877410;29;20052;-66